Time;durP1;ratioP1;P1;durP2;ratioP2;P2;SDS_P1;SDS_P2;PMS_P1;PMS_P2;Temp;Humidity;BMP_temperature;BMP_pressure;BME280_temperature;BME280_humidity;BME280_pressure;Samples;Min_cycle;Max_cycle;Signal;HPM_P1;HPM_P2
2020/12/20 00:01:01;;;;;;;5.93;3.40;;;8.90;99.90;;;;;;5023006;28;20112;-68
2020/12/20 00:03:27;;;;;;;8.63;3.53;;;8.90;99.90;;;;;;5027719;28;20045;-68
2020/12/20 00:05:54;;;;;;;6.50;3.58;;;8.90;99.90;;;;;;5027448;28;20053;-68
2020/12/20 00:08:21;;;;;;;6.75;3.30;;;8.90;99.90;;;;;;5026312;28;20353;-68
2020/12/20 00:10:47;;;;;;;10.43;3.92;;;8.90;99.90;;;;;;5028918;28;20049;-68
2020/12/20 00:13:17;;;;;;;6.60;3.53;;;9.00;99.90;;;;;;5024191;28;20108;-68
2020/12/20 00:15:46;;;;;;;7.35;3.05;;;9.00;99.90;;;;;;5024683;28;20691;-68
2020/12/20 00:18:13;;;;;;;5.20;3.35;;;9.00;99.90;;;;;;5016673;28;20140;-68
2020/12/20 00:20:39;;;;;;;5.50;3.17;;;9.00;99.90;;;;;;5034671;28;20046;-68
2020/12/20 00:23:06;;;;;;;6.38;3.22;;;9.00;99.90;;;;;;5021148;28;20477;-68
2020/12/20 00:25:32;;;;;;;7.00;3.55;;;9.10;99.90;;;;;;5026126;28;20049;-68
2020/12/20 00:27:59;;;;;;;6.57;3.10;;;9.10;99.90;;;;;;5024976;28;20073;-68
2020/12/20 00:30:25;;;;;;;6.63;3.15;;;9.10;99.90;;;;;;5017995;28;20546;-68
2020/12/20 00:32:52;;;;;;;6.68;2.90;;;9.10;99.90;;;;;;5025754;28;20053;-68
2020/12/20 00:35:19;;;;;;;7.63;3.25;;;9.10;99.90;;;;;;5026414;28;20181;-68
2020/12/20 00:37:46;;;;;;;6.72;3.03;;;9.10;99.90;;;;;;5023623;28;20519;-68
2020/12/20 00:40:13;;;;;;;5.10;3.08;;;9.10;99.90;;;;;;5017467;28;20057;-68
2020/12/20 00:42:39;;;;;;;7.45;3.08;;;9.10;99.90;;;;;;5020324;28;20050;-68
2020/12/20 00:45:05;;;;;;;5.53;3.05;;;9.10;99.90;;;;;;5022352;28;20069;-68
2020/12/20 00:47:32;;;;;;;6.80;3.13;;;9.10;99.90;;;;;;5018958;28;20049;-68
2020/12/20 00:50:00;;;;;;;5.90;2.88;;;9.10;99.90;;;;;;5026807;28;20049;-68
2020/12/20 00:52:26;;;;;;;10.52;3.22;;;9.10;99.90;;;;;;5026698;28;20057;-68
2020/12/20 00:54:53;;;;;;;6.15;3.03;;;9.10;99.90;;;;;;5021255;28;20140;-68
2020/12/20 00:57:19;;;;;;;5.35;2.97;;;9.20;99.90;;;;;;5018733;28;20453;-68
2020/12/20 00:59:45;;;;;;;7.75;2.90;;;9.20;99.90;;;;;;5024976;28;20060;-68
2020/12/20 01:02:12;;;;;;;6.90;3.00;;;9.20;99.90;;;;;;5015204;28;20096;-68
2020/12/20 01:04:40;;;;;;;6.82;3.30;;;9.20;99.90;;;;;;5021297;28;20144;-68
2020/12/20 01:07:06;;;;;;;6.35;2.80;;;9.20;99.90;;;;;;5028195;28;20448;-68
2020/12/20 01:09:33;;;;;;;7.28;3.50;;;9.20;99.90;;;;;;5026499;28;20077;-68
2020/12/20 01:12:01;;;;;;;6.25;3.10;;;9.20;99.90;;;;;;5026488;28;20060;-68
2020/12/20 01:14:28;;;;;;;6.60;2.92;;;9.20;99.90;;;;;;5025469;28;20469;-68
2020/12/20 01:16:55;;;;;;;5.75;2.47;;;9.30;99.90;;;;;;5028761;28;20085;-68
2020/12/20 01:19:37;;;;;;;8.35;2.78;;;9.30;99.90;;;;;;5024872;28;20077;-68
2020/12/20 01:22:03;;;;;;;7.38;2.95;;;9.30;99.90;;;;;;5020054;28;20485;-68
2020/12/20 01:24:30;;;;;;;8.80;2.70;;;9.30;99.90;;;;;;5024315;28;20203;-68
2020/12/20 01:26:56;;;;;;;7.88;2.42;;;9.30;99.90;;;;;;5028701;28;20057;-68
2020/12/20 01:29:23;;;;;;;8.15;3.15;;;9.30;99.90;;;;;;5027278;28;20129;-68
2020/12/20 01:31:49;;;;;;;5.03;2.70;;;9.40;99.90;;;;;;5027736;28;20477;-68
2020/12/20 01:34:17;;;;;;;5.30;2.95;;;9.40;99.90;;;;;;5024470;28;20504;-68
2020/12/20 01:36:44;;;;;;;6.63;2.40;;;9.40;99.90;;;;;;5022347;28;20403;-68
2020/12/20 01:39:11;;;;;;;5.65;2.67;;;9.40;99.90;;;;;;5028092;28;20546;-68
2020/12/20 01:41:38;;;;;;;6.88;2.58;;;9.40;99.90;;;;;;5030427;28;20561;-68
2020/12/20 01:44:05;;;;;;;7.05;2.80;;;9.40;99.90;;;;;;5021734;28;20038;-68
2020/12/20 01:46:33;;;;;;;6.68;2.90;;;9.40;99.90;;;;;;5032123;28;20574;-68
2020/12/20 01:49:02;;;;;;;6.95;2.90;;;9.40;99.90;;;;;;5026836;28;20112;-68
2020/12/20 01:51:28;;;;;;;5.43;2.92;;;9.40;99.90;;;;;;5028572;28;20053;-68
2020/12/20 01:53:55;;;;;;;7.57;2.55;;;9.40;99.90;;;;;;5027484;28;20084;-68
2020/12/20 01:56:22;;;;;;;5.75;2.50;;;9.40;99.90;;;;;;5029416;28;20088;-68
2020/12/20 01:58:49;;;;;;;6.38;2.85;;;9.40;99.90;;;;;;5025869;28;20504;-68
2020/12/20 02:01:15;;;;;;;7.00;2.90;;;9.40;99.90;;;;;;5025584;28;20150;-67
2020/12/20 02:03:43;;;;;;;5.28;2.22;;;9.40;99.90;;;;;;5023888;28;20045;-68
2020/12/20 02:06:13;;;;;;;10.88;3.20;;;9.40;99.90;;;;;;5027583;28;20064;-68
2020/12/20 02:08:40;;;;;;;4.13;2.17;;;9.40;99.90;;;;;;5027955;28;20077;-68
2020/12/20 02:11:18;;;;;;;6.90;2.80;;;9.40;99.90;;;;;;5029166;28;20459;-68
2020/12/20 02:13:49;;;;;;;6.25;2.92;;;9.40;99.90;;;;;;5021750;28;20551;-68
2020/12/20 02:16:20;;;;;;;7.30;2.72;;;9.40;99.90;;;;;;5031306;28;20136;-68
2020/12/20 02:18:48;;;;;;;5.82;2.53;;;9.40;99.90;;;;;;5027157;28;20128;-68
2020/12/20 02:21:19;;;;;;;6.43;2.90;;;9.40;99.90;;;;;;5030804;28;20058;-68
2020/12/20 02:23:48;;;;;;;8.70;2.58;;;9.40;99.90;;;;;;5023572;28;20053;-68
2020/12/20 02:26:20;;;;;;;5.88;3.05;;;9.40;99.90;;;;;;5021134;28;20104;-68
2020/12/20 02:28:57;;;;;;;7.18;2.63;;;9.30;99.90;;;;;;5026283;28;20477;-68
2020/12/20 02:31:26;;;;;;;4.85;2.38;;;9.30;99.90;;;;;;5024399;28;20489;-68
2020/12/20 02:33:53;;;;;;;5.95;2.53;;;9.30;99.90;;;;;;5022942;28;20045;-68
2020/12/20 02:36:20;;;;;;;4.63;2.90;;;9.20;99.90;;;;;;5031241;28;20057;-68
2020/12/20 02:38:46;;;;;;;6.90;2.67;;;9.20;99.90;;;;;;5024358;28;20045;-68
2020/12/20 02:41:16;;;;;;;6.25;2.72;;;9.20;99.90;;;;;;5029693;28;20439;-68
2020/12/20 02:43:43;;;;;;;4.53;2.25;;;9.20;99.90;;;;;;5026664;28;20451;-68
2020/12/20 02:46:10;;;;;;;4.75;2.42;;;9.20;99.90;;;;;;5021757;28;20164;-68
2020/12/20 02:48:37;;;;;;;5.47;2.65;;;9.20;99.90;;;;;;5025825;28;20499;-68
2020/12/20 02:51:03;;;;;;;6.47;2.95;;;9.20;99.90;;;;;;5029731;28;20467;-67
2020/12/20 02:53:31;;;;;;;6.15;3.00;;;9.10;99.90;;;;;;5026624;28;20065;-68
2020/12/20 02:55:58;;;;;;;6.15;2.95;;;9.10;99.90;;;;;;5027645;28;20053;-68
2020/12/20 02:58:25;;;;;;;5.57;3.03;;;9.10;99.90;;;;;;5021677;28;20482;-68
2020/12/20 03:00:51;;;;;;;6.55;2.92;;;9.10;99.90;;;;;;5027594;28;20108;-68
2020/12/20 03:03:18;;;;;;;9.65;3.30;;;9.10;99.90;;;;;;5024542;28;20054;-68
2020/12/20 03:05:44;;;;;;;6.93;2.90;;;9.10;99.90;;;;;;5025286;28;20046;-68
2020/12/20 03:08:10;;;;;;;5.05;2.85;;;9.10;99.90;;;;;;5017606;28;20057;-68
2020/12/20 03:10:38;;;;;;;5.90;3.05;;;9.10;99.90;;;;;;5023715;28;20054;-68
2020/12/20 03:13:04;;;;;;;5.05;2.95;;;9.10;99.90;;;;;;5027113;28;20050;-68
2020/12/20 03:15:31;;;;;;;5.35;3.13;;;9.10;99.90;;;;;;5026330;28;20057;-68
2020/12/20 03:17:58;;;;;;;5.30;3.03;;;9.10;99.90;;;;;;5023438;28;20050;-68
2020/12/20 03:20:25;;;;;;;4.35;2.55;;;9.10;99.90;;;;;;5016626;28;20057;-68
2020/12/20 03:22:52;;;;;;;4.38;3.00;;;9.00;99.90;;;;;;5028034;28;20045;-68
2020/12/20 03:25:18;;;;;;;5.18;2.80;;;9.10;99.90;;;;;;5024226;28;20084;-68
2020/12/20 03:27:51;;;;;;;4.55;3.00;;;9.00;99.90;;;;;;5021313;28;20413;-68
2020/12/20 03:30:19;;;;;;;5.15;3.00;;;9.00;99.90;;;;;;5021926;28;20492;-68
2020/12/20 03:32:45;;;;;;;6.88;3.17;;;9.00;99.90;;;;;;5025471;28;20096;-68
2020/12/20 03:35:12;;;;;;;7.03;3.30;;;9.00;99.90;;;;;;5026295;28;20050;-68
2020/12/20 03:37:38;;;;;;;6.13;3.10;;;9.00;99.90;;;;;;5017781;28;20077;-68
2020/12/20 03:40:05;;;;;;;5.07;3.03;;;9.00;99.90;;;;;;5029096;28;20045;-68
2020/12/20 03:42:31;;;;;;;4.85;2.80;;;9.00;99.90;;;;;;5023547;28;20079;-68
2020/12/20 03:44:58;;;;;;;4.93;2.70;;;9.00;99.90;;;;;;5037891;28;20045;-68
2020/12/20 03:47:24;;;;;;;5.15;2.67;;;9.00;99.90;;;;;;5020144;28;22399;-68
2020/12/20 03:49:51;;;;;;;6.13;2.83;;;9.00;99.90;;;;;;5026474;28;20049;-68
2020/12/20 03:52:17;;;;;;;4.38;2.55;;;9.00;99.90;;;;;;5015896;28;20108;-68
2020/12/20 03:54:44;;;;;;;6.20;2.83;;;9.00;99.90;;;;;;5015993;28;20054;-67
2020/12/20 03:57:12;;;;;;;6.40;3.53;;;9.00;99.90;;;;;;5025727;28;20050;-68
2020/12/20 03:59:39;;;;;;;4.97;2.53;;;8.90;99.90;;;;;;5023224;28;20037;-68
2020/12/20 04:02:07;;;;;;;7.40;3.08;;;9.00;99.90;;;;;;5024186;28;20444;-68
2020/12/20 04:04:33;;;;;;;6.10;3.10;;;8.90;99.90;;;;;;5034020;28;20046;-68
2020/12/20 04:07:01;;;;;;;5.03;2.72;;;9.00;99.90;;;;;;5029688;28;20045;-67
2020/12/20 04:09:28;;;;;;;4.05;2.67;;;9.00;99.90;;;;;;5027237;28;20053;-68
2020/12/20 04:11:54;;;;;;;5.43;2.42;;;9.00;99.90;;;;;;5028636;28;20080;-68
2020/12/20 04:14:21;;;;;;;6.25;3.00;;;8.90;99.90;;;;;;5019846;28;20045;-68
2020/12/20 04:16:47;;;;;;;6.55;2.88;;;8.90;99.90;;;;;;5028635;28;20426;-68
2020/12/20 04:19:14;;;;;;;7.43;3.30;;;8.90;99.90;;;;;;5028417;28;20085;-68
2020/12/20 04:21:41;;;;;;;8.38;3.30;;;8.90;99.90;;;;;;5026516;28;20096;-68
2020/12/20 04:24:09;;;;;;;6.95;3.60;;;8.90;99.90;;;;;;5022795;28;20076;-68
2020/12/20 04:26:35;;;;;;;7.50;3.40;;;8.90;99.90;;;;;;5029024;28;20068;-69
2020/12/20 04:29:03;;;;;;;7.82;3.08;;;8.90;99.90;;;;;;5022447;28;20309;-68
2020/12/20 04:31:29;;;;;;;4.38;2.75;;;8.90;99.90;;;;;;5026300;28;20058;-68
2020/12/20 04:33:56;;;;;;;5.25;2.95;;;8.90;99.90;;;;;;5013210;28;20057;-68
2020/12/20 04:36:23;;;;;;;7.95;2.90;;;8.90;99.90;;;;;;5029325;28;20085;-68
2020/12/20 04:38:49;;;;;;;9.98;3.20;;;8.90;99.90;;;;;;5022725;28;20049;-68
2020/12/20 04:41:22;;;;;;;5.63;2.85;;;8.90;99.90;;;;;;5028485;28;20103;-68
2020/12/20 04:43:49;;;;;;;6.18;3.05;;;8.90;99.90;;;;;;5022876;28;20042;-68
2020/12/20 04:46:18;;;;;;;6.90;3.35;;;8.90;99.90;;;;;;5027756;28;20080;-68
2020/12/20 04:48:45;;;;;;;5.70;2.90;;;8.90;99.90;;;;;;5022859;28;20091;-68
2020/12/20 04:51:13;;;;;;;6.80;3.13;;;8.90;99.90;;;;;;5025649;28;20108;-68
2020/12/20 04:53:40;;;;;;;4.57;2.28;;;8.90;99.90;;;;;;5025823;28;20064;-68
2020/12/20 04:56:09;;;;;;;5.15;3.10;;;8.90;99.90;;;;;;5032841;28;20488;-68
2020/12/20 04:58:37;;;;;;;8.32;3.05;;;8.90;99.90;;;;;;5026445;28;20041;-68
2020/12/20 05:01:06;;;;;;;5.20;2.85;;;8.90;99.90;;;;;;5028285;28;20440;-68
2020/12/20 05:03:33;;;;;;;5.72;2.25;;;8.90;99.90;;;;;;5027749;28;20145;-68
2020/12/20 05:06:00;;;;;;;6.68;2.58;;;8.90;99.90;;;;;;5028092;28;20058;-68
2020/12/20 05:08:27;;;;;;;6.82;2.72;;;8.90;99.90;;;;;;5024766;28;20057;-68
2020/12/20 05:10:54;;;;;;;7.32;3.20;;;8.90;99.90;;;;;;5021249;28;20064;-68
2020/12/20 05:13:20;;;;;;;6.90;2.63;;;8.90;99.90;;;;;;5025323;28;20054;-68
2020/12/20 05:15:48;;;;;;;4.57;2.65;;;8.90;99.90;;;;;;5027836;28;20432;-68
2020/12/20 05:18:16;;;;;;;6.07;2.75;;;8.90;99.90;;;;;;5022534;28;20038;-68
2020/12/20 05:20:45;;;;;;;5.45;2.90;;;8.90;99.90;;;;;;5017713;28;20126;-68
2020/12/20 05:23:13;;;;;;;6.15;3.15;;;8.90;99.90;;;;;;5017909;28;20038;-68
2020/12/20 05:25:41;;;;;;;10.60;3.90;;;8.90;99.90;;;;;;5027381;28;20358;-68
2020/12/20 05:28:11;;;;;;;7.28;3.83;;;8.80;99.90;;;;;;5021434;28;20045;-68
2020/12/20 05:30:43;;;;;;;8.57;4.43;;;8.80;99.90;;;;;;5024786;28;20053;-68
2020/12/20 05:33:22;;;;;;;6.90;3.80;;;8.80;99.90;;;;;;5025198;28;20057;-68
2020/12/20 05:35:59;;;;;;;11.05;4.47;;;8.80;99.90;;;;;;5030543;28;20053;-68
2020/12/20 05:38:26;;;;;;;6.07;3.53;;;8.80;99.90;;;;;;5018590;28;20046;-68
2020/12/20 05:40:53;;;;;;;6.78;3.85;;;8.80;99.90;;;;;;5024559;28;20050;-68
2020/12/20 05:43:25;;;;;;;6.35;3.60;;;8.80;99.90;;;;;;5023901;28;20041;-68
2020/12/20 05:45:53;;;;;;;8.07;2.95;;;8.80;99.90;;;;;;5032783;28;20133;-68
2020/12/20 05:48:22;;;;;;;5.97;3.28;;;8.80;99.90;;;;;;5021348;28;20053;-68
2020/12/20 05:50:56;;;;;;;7.00;2.95;;;8.80;99.90;;;;;;5024864;28;20400;-68
2020/12/20 05:53:27;;;;;;;5.80;2.83;;;8.80;99.90;;;;;;5032148;28;20085;-68
2020/12/20 05:55:55;;;;;;;6.75;3.53;;;8.70;99.90;;;;;;5029950;28;20086;-68
2020/12/20 05:58:22;;;;;;;5.45;3.25;;;8.70;99.90;;;;;;5021747;28;20634;-68
2020/12/20 06:00:49;;;;;;;5.20;3.00;;;8.70;99.90;;;;;;5026588;28;20120;-68
2020/12/20 06:03:16;;;;;;;7.22;3.15;;;8.70;99.90;;;;;;5021573;28;20111;-68
2020/12/20 06:05:45;;;;;;;6.47;3.17;;;8.60;99.90;;;;;;5026108;28;20151;-68
2020/12/20 06:08:21;;;;;;;8.15;3.50;;;8.60;99.90;;;;;;5024255;28;20468;-68
2020/12/20 06:10:52;;;;;;;6.35;2.92;;;8.60;99.90;;;;;;5017497;28;20061;-68
2020/12/20 06:13:22;;;;;;;6.95;2.80;;;8.60;99.90;;;;;;5024477;28;20116;-68
2020/12/20 06:15:54;;;;;;;4.75;2.90;;;8.60;99.90;;;;;;5026420;28;20123;-68
2020/12/20 06:18:24;;;;;;;7.30;2.95;;;8.60;99.90;;;;;;5026783;28;20545;-68
2020/12/20 06:20:59;;;;;;;6.35;3.03;;;8.60;99.90;;;;;;5022740;28;20073;-68
2020/12/20 06:23:30;;;;;;;5.50;2.72;;;8.60;99.90;;;;;;5033611;28;20080;-68
2020/12/20 06:25:58;;;;;;;7.15;3.00;;;8.60;99.90;;;;;;5016606;28;20092;-68
2020/12/20 06:28:25;;;;;;;7.93;3.15;;;8.60;99.90;;;;;;5027026;28;20053;-68
2020/12/20 06:30:53;;;;;;;6.05;2.58;;;8.60;99.90;;;;;;5019344;28;20412;-68
2020/12/20 06:33:42;;;;;;;5.95;2.90;;;8.60;99.90;;;;;;5019178;28;20127;-68
2020/12/20 06:36:14;;;;;;;5.47;2.80;;;8.60;99.90;;;;;;5029230;28;20439;-68
2020/12/20 06:38:51;;;;;;;9.23;2.70;;;8.60;99.90;;;;;;5021005;28;20049;-68
2020/12/20 06:41:34;;;;;;;7.90;3.40;;;8.60;99.90;;;;;;5019500;28;20432;-68
2020/12/20 06:44:12;;;;;;;8.48;2.60;;;8.60;99.90;;;;;;5016048;28;20421;-68
2020/12/20 06:46:39;;;;;;;5.80;3.10;;;8.60;99.90;;;;;;5027709;28;20045;-68
2020/12/20 06:49:32;;;;;;;6.60;2.97;;;8.50;99.90;;;;;;5017612;28;20049;-68
2020/12/20 06:52:17;;;;;;;7.00;2.30;;;8.50;99.90;;;;;;5016816;28;20081;-68
2020/12/20 06:55:00;;;;;;;;;;;8.50;99.90;;;;;;5025878;28;20061;-68
2020/12/20 06:57:27;;;;;;;5.72;2.10;;;8.50;99.90;;;;;;5019927;28;19947;-68
2020/12/20 06:59:55;;;;;;;5.82;2.10;;;8.40;99.90;;;;;;5026353;28;20465;-68
2020/12/20 07:02:46;;;;;;;5.78;2.88;;;8.40;99.90;;;;;;5027397;28;20098;-68
2020/12/20 07:05:36;;;;;;;4.43;2.13;;;8.50;99.90;;;;;;5028010;28;20141;-68
2020/12/20 07:08:21;;;;;;;6.57;2.60;;;8.40;99.90;;;;;;5020134;28;20053;-68
2020/12/20 07:10:53;;;;;;;4.47;2.75;;;8.40;99.90;;;;;;5028631;28;20492;-68
2020/12/20 07:13:40;;;;;;;5.28;2.67;;;8.40;99.90;;;;;;5019094;28;20054;-68
2020/12/20 07:16:10;;;;;;;6.55;2.30;;;8.40;99.90;;;;;;5029514;28;20053;-68
2020/12/20 07:18:57;;;;;;;6.30;2.55;;;8.40;99.90;;;;;;5022330;28;20086;-68
2020/12/20 07:21:23;;;;;;;6.82;2.88;;;8.30;99.90;;;;;;5015412;28;20053;-68
2020/12/20 07:24:11;;;;;;;4.43;2.28;;;8.30;99.90;;;;;;5022390;28;20481;-68
2020/12/20 07:26:38;;;;;;;6.82;2.22;;;8.30;99.90;;;;;;5023736;28;20131;-68
2020/12/20 07:29:06;;;;;;;5.07;2.50;;;8.30;99.90;;;;;;5011323;28;20261;-68
2020/12/20 07:31:33;;;;;;;4.33;2.20;;;8.30;99.90;;;;;;5025694;28;20054;-68
2020/12/20 07:34:00;;;;;;;5.22;2.47;;;8.30;99.90;;;;;;5023000;28;20061;-68
2020/12/20 07:36:27;;;;;;;4.68;2.35;;;8.30;99.90;;;;;;5021349;28;20129;-68
2020/12/20 07:38:54;;;;;;;6.75;2.63;;;8.30;99.90;;;;;;5019515;28;20136;-68
2020/12/20 07:41:24;;;;;;;6.75;2.47;;;8.20;99.90;;;;;;5017193;28;20112;-68
2020/12/20 07:43:52;;;;;;;6.05;2.55;;;8.20;99.90;;;;;;5022025;28;20091;-68
2020/12/20 07:46:20;;;;;;;5.03;2.50;;;8.20;99.90;;;;;;5022025;28;20042;-68
2020/12/20 07:48:47;;;;;;;5.20;2.20;;;8.20;99.90;;;;;;5020852;28;20054;-68
2020/12/20 07:51:23;;;;;;;4.10;2.63;;;8.20;99.90;;;;;;5024844;28;20084;-68
2020/12/20 07:53:55;;;;;;;8.00;2.65;;;8.20;99.90;;;;;;5022225;28;20406;-68
2020/12/20 07:56:33;;;;;;;6.15;2.97;;;8.20;99.90;;;;;;5023258;28;20510;-68
2020/12/20 07:59:07;;;;;;;11.55;3.17;;;8.20;99.90;;;;;;5022636;28;20045;-68
2020/12/20 08:01:35;;;;;;;4.07;2.47;;;8.20;99.90;;;;;;5028101;28;20190;-68
2020/12/20 08:04:09;;;;;;;6.82;2.50;;;8.20;99.90;;;;;;5024592;28;20050;-68
2020/12/20 08:06:46;;;;;;;4.70;2.10;;;8.20;99.90;;;;;;5025522;28;20119;-68
2020/12/20 08:09:17;;;;;;;5.70;2.15;;;8.20;99.90;;;;;;5022851;28;20053;-68
2020/12/20 08:11:48;;;;;;;6.53;2.60;;;8.20;99.90;;;;;;5022124;28;20057;-68
2020/12/20 08:14:17;;;;;;;8.70;3.10;;;8.20;99.90;;;;;;5023949;28;20076;-68
2020/12/20 08:16:46;;;;;;;5.43;2.00;;;8.20;99.90;;;;;;5029019;28;20041;-68
2020/12/20 08:19:21;;;;;;;6.95;2.50;;;8.20;99.90;;;;;;5024322;28;20548;-68
2020/12/20 08:21:57;;;;;;;5.78;2.40;;;8.20;99.90;;;;;;5028908;28;20107;-68
2020/12/20 08:24:32;;;;;;;6.38;2.03;;;8.20;99.90;;;;;;5011314;28;20073;-68
2020/12/20 08:27:10;;;;;;;5.38;2.00;;;8.20;99.90;;;;;;5019940;28;20074;-68
2020/12/20 08:29:38;;;;;;;3.60;2.22;;;8.20;99.90;;;;;;5037646;28;20058;-68
2020/12/20 08:32:15;;;;;;;9.13;2.28;;;8.20;99.90;;;;;;5025351;28;20141;-68
2020/12/20 08:34:42;;;;;;;3.35;2.00;;;8.20;99.90;;;;;;5030075;28;20136;-68
2020/12/20 08:37:14;;;;;;;4.13;2.10;;;8.20;99.90;;;;;;5030599;28;20443;-68
2020/12/20 08:39:42;;;;;;;6.72;2.70;;;8.20;99.90;;;;;;5030418;28;20500;-68
2020/12/20 08:42:14;;;;;;;6.68;2.42;;;8.20;99.90;;;;;;5028609;28;20046;-68
2020/12/20 08:44:42;;;;;;;5.85;2.33;;;8.30;99.90;;;;;;5027645;28;20057;-68
2020/12/20 08:47:10;;;;;;;7.93;3.10;;;8.30;99.90;;;;;;5019265;28;20484;-67
2020/12/20 08:49:58;;;;;;;6.70;2.53;;;8.30;99.90;;;;;;5018532;28;20312;-68
2020/12/20 08:52:32;;;;;;;5.00;2.53;;;8.30;99.90;;;;;;5023948;28;20070;-68
2020/12/20 08:55:00;;;;;;;5.07;2.15;;;8.30;99.90;;;;;;5021456;28;20312;-67
2020/12/20 08:57:31;;;;;;;5.07;2.15;;;8.30;99.90;;;;;;5028680;28;20828;-68
2020/12/20 09:00:14;;;;;;;6.93;2.72;;;8.30;99.90;;;;;;5024731;28;20061;-68
2020/12/20 09:02:41;;;;;;;6.18;2.38;;;8.40;99.90;;;;;;5021754;28;20483;-68
2020/12/20 09:05:13;;;;;;;7.25;2.03;;;8.40;99.90;;;;;;5029851;28;20107;-68
2020/12/20 09:07:47;;;;;;;6.13;2.50;;;8.40;99.90;;;;;;5027887;28;20056;-67
2020/12/20 09:10:19;;;;;;;6.18;2.08;;;8.40;99.90;;;;;;5020503;28;20057;-68
2020/12/20 09:12:57;;;;;;;5.03;2.42;;;8.40;99.90;;;;;;5026485;28;20104;-68
2020/12/20 09:15:23;;;;;;;6.70;2.65;;;8.40;99.90;;;;;;5030775;28;20038;-68
2020/12/20 09:17:52;;;;;;;6.43;2.28;;;8.50;99.90;;;;;;5018172;28;20050;-68
2020/12/20 09:20:22;;;;;;;9.07;2.88;;;8.50;99.90;;;;;;5028988;28;20440;-68
2020/12/20 09:22:52;;;;;;;9.60;2.88;;;8.50;99.90;;;;;;5024460;28;20042;-68
2020/12/20 09:25:33;;;;;;;8.35;2.97;;;8.60;99.90;;;;;;5026694;28;20049;-68
2020/12/20 09:28:19;;;;;;;12.05;3.72;;;8.60;99.90;;;;;;5023226;28;20056;-68
2020/12/20 09:30:47;;;;;;;5.32;2.20;;;8.60;99.90;;;;;;5019317;28;20108;-68
2020/12/20 09:33:16;;;;;;;5.97;2.42;;;8.70;99.90;;;;;;5021130;28;20448;-66
2020/12/20 09:35:56;;;;;;;9.25;3.45;;;8.70;99.90;;;;;;5026049;28;20085;-68
2020/12/20 09:38:26;;;;;;;7.30;3.20;;;8.80;99.90;;;;;;5016879;28;20053;-68
2020/12/20 09:41:05;;;;;;;9.40;3.60;;;8.80;99.90;;;;;;5029090;28;20046;-67
2020/12/20 09:43:32;;;;;;;9.93;3.33;;;8.90;99.90;;;;;;5021194;28;20058;-70
2020/12/20 09:46:00;;;;;;;7.15;3.38;;;8.90;99.90;;;;;;5024371;28;20050;-69
2020/12/20 09:48:39;;;;;;;9.43;2.88;;;9.00;99.90;;;;;;5024613;28;20049;-68
2020/12/20 09:51:06;;;;;;;6.95;2.90;;;9.00;99.90;;;;;;5038575;28;20099;-69
2020/12/20 09:53:32;;;;;;;11.10;2.88;;;9.00;99.90;;;;;;5024387;28;20463;-69
2020/12/20 09:55:59;;;;;;;6.40;2.70;;;9.10;99.90;;;;;;5028580;28;20053;-69
2020/12/20 09:58:27;;;;;;;9.57;3.03;;;9.10;99.90;;;;;;5024695;28;20463;-68
2020/12/20 10:00:54;;;;;;;9.77;3.10;;;9.20;99.90;;;;;;5022700;28;20056;-69
2020/12/20 10:03:20;;;;;;;10.25;2.70;;;9.20;99.90;;;;;;5018171;28;20124;-69
2020/12/20 10:05:59;;;;;;;11.77;3.10;;;9.30;99.90;;;;;;5026883;28;20042;-70
2020/12/20 10:08:26;;;;;;;6.53;2.70;;;9.30;99.90;;;;;;5019618;28;20050;-69
2020/12/20 10:10:55;;;;;;;6.30;2.80;;;9.40;99.90;;;;;;5016570;28;20085;-69
2020/12/20 10:13:22;;;;;;;10.50;3.33;;;9.50;99.90;;;;;;5022333;28;20053;-69
2020/12/20 10:15:49;;;;;;;7.60;2.78;;;9.50;99.90;;;;;;5016868;28;20061;-68
2020/12/20 10:18:15;;;;;;;8.63;3.10;;;9.60;99.90;;;;;;5037820;28;20148;-68
2020/12/20 10:20:42;;;;;;;11.13;3.10;;;9.70;99.90;;;;;;5020718;28;20387;-69
2020/12/20 10:23:09;;;;;;;7.38;3.13;;;9.70;99.90;;;;;;5032793;28;20115;-69
2020/12/20 10:25:36;;;;;;;9.60;3.63;;;9.80;99.90;;;;;;5020268;28;20061;-69
2020/12/20 10:28:02;;;;;;;7.80;2.97;;;9.80;99.90;;;;;;5022819;28;20559;-69
2020/12/20 10:30:29;;;;;;;8.93;3.70;;;9.80;99.90;;;;;;5022415;28;20107;-69
2020/12/20 10:32:55;;;;;;;10.55;3.33;;;9.80;99.90;;;;;;5021672;28;20056;-69
2020/12/20 10:35:27;;;;;;;10.10;3.05;;;9.90;99.90;;;;;;5018163;28;20063;-68
2020/12/20 10:37:55;;;;;;;14.23;3.67;;;9.90;99.90;;;;;;5015289;28;20042;-69
2020/12/20 10:40:23;;;;;;;11.02;3.53;;;10.00;99.90;;;;;;5042731;28;20542;-68
2020/12/20 10:42:49;;;;;;;11.63;3.92;;;10.00;99.90;;;;;;5025303;28;20053;-69
2020/12/20 10:45:17;;;;;;;11.40;3.58;;;10.10;99.90;;;;;;5014262;28;20049;-69
2020/12/20 10:47:44;;;;;;;10.88;3.67;;;10.30;99.90;;;;;;5015269;28;20045;-69
2020/12/20 10:50:12;;;;;;;10.30;4.00;;;10.50;99.90;;;;;;5023365;28;20104;-72
2020/12/20 10:52:39;;;;;;;;;;;10.60;99.90;;;;;;5017133;28;20075;-71
2020/12/20 10:55:16;;;;;;;10.50;3.97;;;10.70;99.90;;;;;;5035359;28;19929;-72
2020/12/20 10:57:44;;;;;;;10.13;3.97;;;10.70;99.90;;;;;;5028086;28;20540;-71
2020/12/20 11:00:10;;;;;;;10.48;3.72;;;10.70;99.90;;;;;;5030535;28;20045;-72
2020/12/20 11:02:44;;;;;;;9.25;3.72;;;10.60;99.90;;;;;;5020058;28;20101;-71
2020/12/20 11:05:25;;;;;;;8.38;3.88;;;10.50;99.90;;;;;;5026056;28;20056;-71
2020/12/20 11:08:17;;;;;;;11.25;3.83;;;10.50;99.90;;;;;;5019094;28;20052;-71
2020/12/20 11:10:43;;;;;;;10.57;4.25;;;10.40;99.90;;;;;;5023886;28;20451;-71
2020/12/20 11:13:10;;;;;;;8.60;3.72;;;10.40;99.90;;;;;;5011763;28;20042;-72
2020/12/20 11:15:42;;;;;;;14.30;4.70;;;10.30;99.90;;;;;;5025019;28;20512;-71
2020/12/20 11:18:09;;;;;;;10.88;4.60;;;10.20;99.90;;;;;;5017470;28;20103;-72
2020/12/20 11:20:39;;;;;;;8.27;4.32;;;10.20;99.90;;;;;;5028037;28;20057;-72
2020/12/20 11:23:06;;;;;;;14.10;4.80;;;10.20;99.90;;;;;;5022732;28;20378;-72
2020/12/20 11:25:33;;;;;;;10.85;4.88;;;10.20;99.90;;;;;;5024466;28;20065;-72
2020/12/20 11:28:00;;;;;;;12.70;5.38;;;10.10;99.90;;;;;;5020407;28;20139;-72
2020/12/20 11:30:27;;;;;;;12.48;4.72;;;10.20;99.90;;;;;;5018761;28;20151;-71
2020/12/20 11:32:53;;;;;;;9.80;4.45;;;10.10;99.90;;;;;;5016370;28;20488;-71
2020/12/20 11:35:19;;;;;;;9.55;4.63;;;10.20;99.90;;;;;;5023094;28;20041;-71
2020/12/20 11:37:46;;;;;;;13.63;5.10;;;10.10;99.90;;;;;;5024913;28;20061;-72
2020/12/20 11:40:12;;;;;;;11.85;5.72;;;10.10;99.90;;;;;;5021813;28;20111;-71
2020/12/20 11:42:39;;;;;;;13.23;5.50;;;10.10;99.90;;;;;;5021938;28;20140;-71
2020/12/20 11:45:05;;;;;;;10.93;4.78;;;10.10;99.90;;;;;;5014105;28;20045;-71
2020/12/20 11:47:32;;;;;;;11.63;4.75;;;10.10;99.90;;;;;;5020385;28;20061;-72
2020/12/20 11:49:58;;;;;;;10.32;4.15;;;10.20;99.90;;;;;;5025819;28;20057;-72
2020/12/20 11:52:28;;;;;;;12.57;4.90;;;10.20;99.90;;;;;;5024031;28;20131;-72
2020/12/20 11:54:54;;;;;;;11.50;4.32;;;10.20;99.90;;;;;;5024182;28;20084;-72
2020/12/20 11:57:21;;;;;;;12.75;4.72;;;10.20;99.90;;;;;;5013209;28;20124;-71
2020/12/20 11:59:48;;;;;;;11.38;4.35;;;10.20;99.90;;;;;;5020504;28;20464;-71
2020/12/20 12:02:14;;;;;;;9.80;4.45;;;10.10;99.90;;;;;;5023715;28;20050;-71
2020/12/20 12:04:41;;;;;;;12.93;4.13;;;10.20;99.90;;;;;;5027918;28;20053;-71
2020/12/20 12:07:07;;;;;;;11.50;4.70;;;10.20;99.90;;;;;;5027654;28;20042;-71
2020/12/20 12:09:34;;;;;;;14.55;4.40;;;10.20;99.90;;;;;;5019660;28;20050;-72
2020/12/20 12:12:01;;;;;;;12.10;4.53;;;10.20;99.90;;;;;;5014668;28;20065;-72
2020/12/20 12:14:27;;;;;;;10.00;4.25;;;10.20;99.90;;;;;;5016457;28;20057;-72
2020/12/20 12:16:53;;;;;;;14.88;4.45;;;10.20;99.90;;;;;;5019762;28;20100;-72
2020/12/20 12:19:20;;;;;;;9.02;4.03;;;10.20;99.90;;;;;;5016634;28;20041;-72
2020/12/20 12:21:50;;;;;;;11.75;4.13;;;10.20;99.90;;;;;;5017286;28;20104;-72
2020/12/20 12:24:16;;;;;;;12.27;3.78;;;10.20;99.90;;;;;;5023830;28;20137;-72
2020/12/20 12:26:47;;;;;;;11.18;4.50;;;10.20;99.90;;;;;;5029360;28;20119;-71
2020/12/20 12:29:13;;;;;;;9.65;3.95;;;10.20;99.90;;;;;;5020947;28;20057;-72
2020/12/20 12:31:41;;;;;;;8.02;3.95;;;10.20;99.90;;;;;;5024364;28;20061;-71
2020/12/20 12:34:07;;;;;;;12.05;3.80;;;10.20;99.90;;;;;;5019068;28;20448;-72
2020/12/20 12:36:34;;;;;;;9.75;4.35;;;10.20;99.90;;;;;;5022835;28;20057;-72
2020/12/20 12:39:02;;;;;;;7.70;3.20;;;10.30;99.90;;;;;;5025188;28;20053;-72
2020/12/20 12:41:30;;;;;;;10.43;3.90;;;10.30;99.90;;;;;;5027032;28;20077;-71
2020/12/20 12:43:57;;;;;;;8.15;2.95;;;10.30;99.90;;;;;;5022809;28;20107;-71
2020/12/20 12:46:24;;;;;;;12.00;3.50;;;10.30;99.90;;;;;;5020111;28;20041;-72
2020/12/20 12:48:50;;;;;;;9.98;3.40;;;10.30;99.90;;;;;;5022442;28;20497;-72
2020/12/20 12:51:24;;;;;;;10.35;3.55;;;10.30;99.90;;;;;;5023895;28;20465;-72
2020/12/20 12:53:51;;;;;;;15.07;3.45;;;10.30;99.90;;;;;;5019571;28;20496;-72
2020/12/20 12:56:18;;;;;;;10.35;3.30;;;10.20;99.90;;;;;;5028515;28;20147;-71
2020/12/20 12:58:44;;;;;;;12.13;3.40;;;10.20;99.90;;;;;;5020302;28;20046;-72
2020/12/20 13:01:13;;;;;;;11.38;3.33;;;10.30;99.90;;;;;;5025866;28;20120;-71
2020/12/20 13:03:41;;;;;;;8.30;2.97;;;10.30;99.90;;;;;;5022874;28;20441;-71